EDDP

Leipzig Halle Airport

Leipzig, Germany
METAR EDDP 231250Z 30008KT 220V010 CAVOK 27/13 Q1016 NOSIG
Observed Flight Rules
Jul-23 @ 12:50 UTC (22 minutes ago) Visual Flight Rules
Wind Visibility Clouds
300° at 8 knots 10,000+ meters
  • Clear skies
Temperatures Readings
Current 27°C / 81°F
Dewpoint 13°C / 55°F
Humidity 42%
Altimeter 30" Hg
Pressure 1016 hPa
Elevation 149
METAR EDDP 231250Z 30008KT 220V010 CAVOK 27/13 Q1016 NOSIG
Observed Flight Rules
Jul-23 @ 12:50 UTC
(22 minutes ago)
VFR
Wind Visibility
300° at 8 knots 10,000+ meters
Clouds
  • Clear skies
Temperature Dewpoint
27°C / 81°F 13°C / 55°F
Humidity Altimeter Pressure
42% 30" Hg 1016 hPa